Terminal Aerodrome Forecast
Issued by NWS

Home | Current Version | Previous Version | Text Only | Print | Product List | Glossary On
Versions: 1 2 3 4 5 6 7 8 9 10 11 12 13 14 15 16 17 18 19 20 21 22
000
FTUS45 KSLC 280533
TAFBCE
TAF
KBCE 280533Z 2806/2906 25006KT P6SM BKN150
     FM281600 15010KT P6SM SCT150
     FM281900 19012G20KT P6SM FEW150
     FM290100 22007KT P6SM FEW150=

USA.gov is the U.S. government's official web portal to all federal, state and local government web resources and services.